Nesbit, MS (38651)

9:57 AM CDT on August 29, 2014 (GMT -0500)
Skyler Estates | Change Station
CLOSE
Current Station
Personal Weather Station
Location: Southaven, MS
Elevation: 375 ft
Nearby Weather Stations

Elev 375 ft 34.91 °N, 89.98 °W | Updated 14 minutes ago

Partly Cloudy
Partly Cloudy
82.4 °F
Feels Like 86 °F
N
2.0
Wind Variable Wind from South
Gusts 4.0 mph

Today
High -- | Low -- °F
--% Chance of Precip.
Yesterday
High -- | Low -- °F
Precip. -- in
6:30 AM 7:30 PM
Waxing Crescent, 14% visible
Pressure 29.98 in
Visibility 10.0 miles
Clouds Few 5000 ft
Scattered Clouds 10000 ft
Scattered Clouds 25000 ft
Heat Index 86 °F
Dew Point 69 °F
Humidity 64%
Rainfall 0.00 in
Snow Depth Not available.
UV 3.7 out of 12
Pollen 10.20 out of 12
Ozone Good
PM2.5 Moderate
Flu Activity Not available.
METAR KMEM 291354Z 21006G14KT 10SM FEW050 SCT100 SCT250 28/19 A2999 RMK AO2 SLP151 T02830189

More Conditions Fewer Conditions

Pressure 29.98 in
Visibility 10.0 miles
Clouds Few 5000 ft
Scattered Clouds 10000 ft
Scattered Clouds 25000 ft
Heat Index 86 °F
Dew Point 69 °F
Humidity 64%
Rainfall 0.00 in
Snow Depth Not available.
UV 3.7 out of 12
Pollen 10.20 out of 12
Ozone Good
PM2.5 Moderate
Flu Activity Not available.
METAR KMEM 291354Z 21006G14KT 10SM FEW050 SCT100 SCT250 28/19 A2999 RMK AO2 SLP151 T02830189

More Conditions Fewer Conditions

10-Day Weather Forecast

Almanac

Astronomy

Aug. 29, 2014 Rise Set
Actual Time 6:30 AM CDT 7:30 PM CDT
Civil Twilight 6:04 AM CDT 7:56 PM CDT
Nautical Twilight 5:33 AM CDT 8:27 PM CDT
Astronomical Twilight 5:02 AM CDT 8:58 PM CDT
Moon 10:09 AM CDT 9:39 PM CDT
Length of Visible Light 13h 51m
Length of Day
12h 59m
Tomorrow will be 2m 5s shorter.
Waxing Crescent, 14% of the Moon is Illuminated
Today
Waxing Crescent
Sep 2
First Quarter
Sep 8
Full
Sep 15
Last Quarter
Sep 24
New

Today's Extremes

State Highs State Lows

Community

WunderPhotos

Upload Photos

1,748,258 photos uploaded!

Nearby

Air Quality

  Air Quality AQ Index Pollutant
Yesterday Moderate
OZONE
Yesterday Moderate
PM2.5
Current Moderate
PM2.5
Current Good
OZONE
Friday Moderate
PM2.5
Friday Good
OZONE

Snow Depth

Station Depth Elevation
No new snow has been reported.

Earthquake Activity

City Distance Mag. Time & Date
No recent earthquake activity has been reported nearby.
Minimum magnitude displayed is 2.5.

Coastal Water Temperatures

Place Temperature
No Stations Reporting

Nearby Weather Stations